Terminal Aerodrome Forecast
Issued by NWS

Home | Current Version | Previous Version | Text Only | Print | Product List | Glossary On
Versions: 1 2 3 4 5 6 7 8 9 10 11 12 13 14 15
570
FTUS43 KMQT 190521
TAFCMX
TAF
KCMX 190521Z 1906/2006 35007KT 2SM -SHSN OVC010
     FM190700 01009KT 3SM -SHSN OVC015
     FM190900 36010KT P6SM OVC015
     FM191300 01009KT 6SM -SHSN OVC015
     FM191600 03009KT 3SM -SHSN OVC020
     FM192100 04012G20KT 1 1/2SM -SHSN BLSN OVC015
     FM200000 05013G22KT 2SM -SN BLSN OVC015=

USA.gov is the U.S. government's official web portal to all federal, state and local government web resources and services.